sensor_id;sensor_type;location;lat;lon;timestamp;temperature;humidity
11083;DHT22;5595;50.186;8.468;2023-09-08T00:36:31;16.90;99.90
11083;DHT22;5595;50.186;8.468;2023-09-08T00:38:57;16.90;99.90
11083;DHT22;5595;50.186;8.468;2023-09-08T00:41:25;17.00;99.90
11083;DHT22;5595;50.186;8.468;2023-09-08T00:43:52;16.90;99.90
11083;DHT22;5595;50.186;8.468;2023-09-08T00:46:22;16.90;99.90
11083;DHT22;5595;50.186;8.468;2023-09-08T00:48:50;16.90;99.90
11083;DHT22;5595;50.186;8.468;2023-09-08T00:51:17;16.90;99.90
11083;DHT22;5595;50.186;8.468;2023-09-08T00:53:46;16.90;99.90
11083;DHT22;5595;50.186;8.468;2023-09-08T00:56:13;16.90;99.90
11083;DHT22;5595;50.186;8.468;2023-09-08T00:58:43;16.90;99.90
11083;DHT22;5595;50.186;8.468;2023-09-08T01:01:10;16.90;99.90
11083;DHT22;5595;50.186;8.468;2023-09-08T01:03:38;16.90;99.90
11083;DHT22;5595;50.186;8.468;2023-09-08T01:06:06;16.90;99.90
11083;DHT22;5595;50.186;8.468;2023-09-08T01:08:34;16.90;99.90
11083;DHT22;5595;50.186;8.468;2023-09-08T01:11:06;16.90;99.90
11083;DHT22;5595;50.186;8.468;2023-09-08T01:13:36;17.00;99.90
11083;DHT22;5595;50.186;8.468;2023-09-08T01:16:05;17.00;99.90
11083;DHT22;5595;50.186;8.468;2023-09-08T01:18:35;16.90;99.90
11083;DHT22;5595;50.186;8.468;2023-09-08T02:00:11;17.10;99.90
11083;DHT22;5595;50.186;8.468;2023-09-08T02:02:37;17.10;99.90
11083;DHT22;5595;50.186;8.468;2023-09-08T02:05:06;17.10;99.90
11083;DHT22;5595;50.186;8.468;2023-09-08T02:07:33;17.00;99.90
11083;DHT22;5595;50.186;8.468;2023-09-08T02:10:00;17.00;99.90
11083;DHT22;5595;50.186;8.468;2023-09-08T02:12:45;17.30;99.90
11083;DHT22;5595;50.186;8.468;2023-09-08T02:25:48;17.30;99.90
11083;DHT22;5595;50.186;8.468;2023-09-08T02:38:23;16.90;99.90
11083;DHT22;5595;50.186;8.468;2023-09-08T02:52:04;16.60;99.90
11083;DHT22;5595;50.186;8.468;2023-09-08T03:23:42;16.30;99.90
11083;DHT22;5595;50.186;8.468;2023-09-08T03:26:56;16.30;99.90
11083;DHT22;5595;50.186;8.468;2023-09-08T03:33:54;16.30;99.90
11083;DHT22;5595;50.186;8.468;2023-09-08T03:37:33;16.30;99.90
11083;DHT22;5595;50.186;8.468;2023-09-08T03:40:02;16.30;99.90
11083;DHT22;5595;50.186;8.468;2023-09-08T03:42:30;16.20;99.90
11083;DHT22;5595;50.186;8.468;2023-09-08T03:44:57;16.10;99.90
11083;DHT22;5595;50.186;8.468;2023-09-08T03:47:23;16.10;99.90
11083;DHT22;5595;50.186;8.468;2023-09-08T03:49:50;16.20;99.90
11083;DHT22;5595;50.186;8.468;2023-09-08T03:52:17;16.10;99.90
11083;DHT22;5595;50.186;8.468;2023-09-08T03:54:44;16.00;99.90
11083;DHT22;5595;50.186;8.468;2023-09-08T03:57:14;16.00;99.90
11083;DHT22;5595;50.186;8.468;2023-09-08T03:59:41;16.10;99.90
11083;DHT22;5595;50.186;8.468;2023-09-08T04:02:07;16.10;99.90
11083;DHT22;5595;50.186;8.468;2023-09-08T04:04:34;16.20;99.90
11083;DHT22;5595;50.186;8.468;2023-09-08T04:07:01;16.30;99.90
11083;DHT22;5595;50.186;8.468;2023-09-08T04:09:28;16.30;99.90
11083;DHT22;5595;50.186;8.468;2023-09-08T04:11:55;16.30;99.90
11083;DHT22;5595;50.186;8.468;2023-09-08T04:14:23;16.30;99.90
11083;DHT22;5595;50.186;8.468;2023-09-08T04:16:52;16.30;99.90
11083;DHT22;5595;50.186;8.468;2023-09-08T04:19:19;16.40;99.90
11083;DHT22;5595;50.186;8.468;2023-09-08T04:21:46;16.50;99.90
11083;DHT22;5595;50.186;8.468;2023-09-08T04:24:12;16.50;99.90
11083;DHT22;5595;50.186;8.468;2023-09-08T04:26:38;16.40;99.90
11083;DHT22;5595;50.186;8.468;2023-09-08T04:29:06;16.50;99.90
11083;DHT22;5595;50.186;8.468;2023-09-08T04:31:35;16.50;99.90
11083;DHT22;5595;50.186;8.468;2023-09-08T04:34:01;16.60;99.90
11083;DHT22;5595;50.186;8.468;2023-09-08T04:36:30;16.60;99.90
11083;DHT22;5595;50.186;8.468;2023-09-08T04:38:57;16.70;99.90
11083;DHT22;5595;50.186;8.468;2023-09-08T04:41:24;16.70;99.90
11083;DHT22;5595;50.186;8.468;2023-09-08T04:43:51;16.60;99.90
11083;DHT22;5595;50.186;8.468;2023-09-08T04:46:18;16.60;99.90
11083;DHT22;5595;50.186;8.468;2023-09-08T04:48:46;16.70;99.90
11083;DHT22;5595;50.186;8.468;2023-09-08T04:51:13;16.60;99.90
11083;DHT22;5595;50.186;8.468;2023-09-08T04:53:40;16.60;99.90
11083;DHT22;5595;50.186;8.468;2023-09-08T04:56:06;16.60;99.90
11083;DHT22;5595;50.186;8.468;2023-09-08T04:58:33;16.50;99.90
11083;DHT22;5595;50.186;8.468;2023-09-08T05:00:59;16.50;99.90
11083;DHT22;5595;50.186;8.468;2023-09-08T05:03:26;16.40;99.90
11083;DHT22;5595;50.186;8.468;2023-09-08T05:05:54;16.40;99.90
11083;DHT22;5595;50.186;8.468;2023-09-08T05:08:21;16.50;99.90
11083;DHT22;5595;50.186;8.468;2023-09-08T05:10:48;16.60;99.90
11083;DHT22;5595;50.186;8.468;2023-09-08T05:13:17;16.60;99.90
11083;DHT22;5595;50.186;8.468;2023-09-08T05:15:43;16.60;99.90
11083;DHT22;5595;50.186;8.468;2023-09-08T05:18:14;16.70;99.90
11083;DHT22;5595;50.186;8.468;2023-09-08T05:20:40;16.70;99.90
11083;DHT22;5595;50.186;8.468;2023-09-08T05:23:09;16.80;99.90
11083;DHT22;5595;50.186;8.468;2023-09-08T05:25:35;16.90;99.90
11083;DHT22;5595;50.186;8.468;2023-09-08T05:28:03;16.90;99.90
11083;DHT22;5595;50.186;8.468;2023-09-08T05:30:29;16.90;99.90
11083;DHT22;5595;50.186;8.468;2023-09-08T05:32:56;16.90;99.90
11083;DHT22;5595;50.186;8.468;2023-09-08T05:35:23;16.90;99.90
11083;DHT22;5595;50.186;8.468;2023-09-08T05:37:50;17.00;99.90
11083;DHT22;5595;50.186;8.468;2023-09-08T05:40:18;17.10;99.90
11083;DHT22;5595;50.186;8.468;2023-09-08T05:42:46;17.10;99.90
11083;DHT22;5595;50.186;8.468;2023-09-08T05:45:13;17.10;99.90
11083;DHT22;5595;50.186;8.468;2023-09-08T05:47:40;17.30;99.90
11083;DHT22;5595;50.186;8.468;2023-09-08T05:50:07;17.40;99.90
11083;DHT22;5595;50.186;8.468;2023-09-08T05:52:34;17.40;99.90
11083;DHT22;5595;50.186;8.468;2023-09-08T05:55:01;17.40;99.90
11083;DHT22;5595;50.186;8.468;2023-09-08T05:57:29;17.40;99.90
11083;DHT22;5595;50.186;8.468;2023-09-08T05:59:56;17.40;99.90
11083;DHT22;5595;50.186;8.468;2023-09-08T06:02:23;17.40;99.90
11083;DHT22;5595;50.186;8.468;2023-09-08T06:04:50;17.30;99.90
11083;DHT22;5595;50.186;8.468;2023-09-08T06:07:17;17.40;99.90
11083;DHT22;5595;50.186;8.468;2023-09-08T06:09:43;17.50;99.90
11083;DHT22;5595;50.186;8.468;2023-09-08T06:12:10;17.60;99.90
11083;DHT22;5595;50.186;8.468;2023-09-08T06:14:38;17.90;99.90
11083;DHT22;5595;50.186;8.468;2023-09-08T06:17:05;18.20;99.90
11083;DHT22;5595;50.186;8.468;2023-09-08T06:19:32;18.50;99.90
11083;DHT22;5595;50.186;8.468;2023-09-08T06:21:59;18.80;99.90
11083;DHT22;5595;50.186;8.468;2023-09-08T06:24:25;19.00;99.90
11083;DHT22;5595;50.186;8.468;2023-09-08T06:26:52;19.20;99.90
11083;DHT22;5595;50.186;8.468;2023-09-08T06:29:19;19.40;99.90
11083;DHT22;5595;50.186;8.468;2023-09-08T06:31:48;19.60;99.90
11083;DHT22;5595;50.186;8.468;2023-09-08T06:34:15;19.80;99.90
11083;DHT22;5595;50.186;8.468;2023-09-08T06:36:46;19.90;99.90
11083;DHT22;5595;50.186;8.468;2023-09-08T06:39:13;19.90;99.90
11083;DHT22;5595;50.186;8.468;2023-09-08T06:41:39;20.00;99.90
11083;DHT22;5595;50.186;8.468;2023-09-08T06:44:06;20.20;99.90
11083;DHT22;5595;50.186;8.468;2023-09-08T06:46:33;20.30;99.90
11083;DHT22;5595;50.186;8.468;2023-09-08T06:49:01;20.40;99.90
11083;DHT22;5595;50.186;8.468;2023-09-08T06:51:28;20.50;99.90
11083;DHT22;5595;50.186;8.468;2023-09-08T06:53:55;20.60;99.90
11083;DHT22;5595;50.186;8.468;2023-09-08T06:56:23;20.70;99.90
11083;DHT22;5595;50.186;8.468;2023-09-08T06:58:50;20.80;99.90
11083;DHT22;5595;50.186;8.468;2023-09-08T07:01:17;20.90;99.90
11083;DHT22;5595;50.186;8.468;2023-09-08T07:03:44;21.00;99.90
11083;DHT22;5595;50.186;8.468;2023-09-08T07:06:12;21.10;99.90
11083;DHT22;5595;50.186;8.468;2023-09-08T07:08:39;21.10;99.90
11083;DHT22;5595;50.186;8.468;2023-09-08T07:11:06;21.20;99.90
11083;DHT22;5595;50.186;8.468;2023-09-08T07:13:33;21.30;99.90
11083;DHT22;5595;50.186;8.468;2023-09-08T08:45:10;23.40;99.90
11083;DHT22;5595;50.186;8.468;2023-09-08T08:47:39;23.50;99.90
11083;DHT22;5595;50.186;8.468;2023-09-08T08:50:15;23.50;99.90
11083;DHT22;5595;50.186;8.468;2023-09-08T08:52:46;23.60;99.90
11083;DHT22;5595;50.186;8.468;2023-09-08T08:55:13;23.60;99.90
11083;DHT22;5595;50.186;8.468;2023-09-08T08:57:41;23.70;99.90
11083;DHT22;5595;50.186;8.468;2023-09-08T09:00:12;23.70;99.90
11083;DHT22;5595;50.186;8.468;2023-09-08T09:02:42;23.80;99.90
11083;DHT22;5595;50.186;8.468;2023-09-08T09:05:16;23.80;99.90
11083;DHT22;5595;50.186;8.468;2023-09-08T09:07:43;23.90;99.90
11083;DHT22;5595;50.186;8.468;2023-09-08T09:10:10;23.90;99.90
11083;DHT22;5595;50.186;8.468;2023-09-08T09:12:37;24.00;99.90
11083;DHT22;5595;50.186;8.468;2023-09-08T09:15:06;24.00;99.90
11083;DHT22;5595;50.186;8.468;2023-09-08T09:17:35;24.10;99.90
11083;DHT22;5595;50.186;8.468;2023-09-08T09:20:15;24.20;99.90
11083;DHT22;5595;50.186;8.468;2023-09-08T09:22:43;24.20;99.90
11083;DHT22;5595;50.186;8.468;2023-09-08T09:25:11;24.20;99.90
11083;DHT22;5595;50.186;8.468;2023-09-08T09:27:50;24.20;99.90
11083;DHT22;5595;50.186;8.468;2023-09-08T09:30:17;24.30;99.90
11083;DHT22;5595;50.186;8.468;2023-09-08T09:32:46;24.30;99.90
11083;DHT22;5595;50.186;8.468;2023-09-08T09:35:15;24.40;99.90
11083;DHT22;5595;50.186;8.468;2023-09-08T09:37:42;24.40;99.90
11083;DHT22;5595;50.186;8.468;2023-09-08T09:40:11;24.50;99.90
11083;DHT22;5595;50.186;8.468;2023-09-08T09:42:39;24.50;99.90
11083;DHT22;5595;50.186;8.468;2023-09-08T09:45:07;24.60;99.90
11083;DHT22;5595;50.186;8.468;2023-09-08T09:47:35;24.60;99.90
11083;DHT22;5595;50.186;8.468;2023-09-08T09:50:07;24.70;99.90
11083;DHT22;5595;50.186;8.468;2023-09-08T10:20:02;25.10;99.90
11083;DHT22;5595;50.186;8.468;2023-09-08T10:22:38;25.20;99.90
11083;DHT22;5595;50.186;8.468;2023-09-08T10:25:06;25.30;99.90
11083;DHT22;5595;50.186;8.468;2023-09-08T10:27:34;25.30;99.90
11083;DHT22;5595;50.186;8.468;2023-09-08T10:30:03;25.40;99.90
11083;DHT22;5595;50.186;8.468;2023-09-08T10:32:31;25.50;99.90
11083;DHT22;5595;50.186;8.468;2023-09-08T10:35:00;25.60;99.90
11083;DHT22;5595;50.186;8.468;2023-09-08T10:37:30;25.70;99.90
11083;DHT22;5595;50.186;8.468;2023-09-08T10:40:20;25.80;99.90
11083;DHT22;5595;50.186;8.468;2023-09-08T10:42:48;25.80;99.90
11083;DHT22;5595;50.186;8.468;2023-09-08T10:45:16;25.80;99.90
11083;DHT22;5595;50.186;8.468;2023-09-08T10:47:56;25.80;99.90
11083;DHT22;5595;50.186;8.468;2023-09-08T10:50:30;25.80;99.90
11083;DHT22;5595;50.186;8.468;2023-09-08T10:53:09;25.80;99.90
11083;DHT22;5595;50.186;8.468;2023-09-08T10:55:40;25.90;99.90
11083;DHT22;5595;50.186;8.468;2023-09-08T10:58:10;25.90;99.90
11083;DHT22;5595;50.186;8.468;2023-09-08T11:00:44;26.00;99.90
11083;DHT22;5595;50.186;8.468;2023-09-08T11:03:12;26.00;99.90
11083;DHT22;5595;50.186;8.468;2023-09-08T11:05:41;26.00;99.90
11083;DHT22;5595;50.186;8.468;2023-09-08T11:08:09;26.00;99.90
11083;DHT22;5595;50.186;8.468;2023-09-08T11:10:36;26.00;99.90
11083;DHT22;5595;50.186;8.468;2023-09-08T11:13:06;26.00;99.90
11083;DHT22;5595;50.186;8.468;2023-09-08T11:15:33;26.10;99.90
11083;DHT22;5595;50.186;8.468;2023-09-08T11:18:05;26.10;99.90
11083;DHT22;5595;50.186;8.468;2023-09-08T11:20:33;26.20;99.90
11083;DHT22;5595;50.186;8.468;2023-09-08T11:23:01;26.20;99.90
11083;DHT22;5595;50.186;8.468;2023-09-08T11:25:31;26.20;99.90
11083;DHT22;5595;50.186;8.468;2023-09-08T11:27:58;26.30;99.90
11083;DHT22;5595;50.186;8.468;2023-09-08T11:30:26;26.30;99.90
11083;DHT22;5595;50.186;8.468;2023-09-08T11:32:55;26.30;99.90
11083;DHT22;5595;50.186;8.468;2023-09-08T11:35:27;26.20;99.90
11083;DHT22;5595;50.186;8.468;2023-09-08T11:38:00;26.20;99.90
11083;DHT22;5595;50.186;8.468;2023-09-08T11:40:28;26.30;99.90
11083;DHT22;5595;50.186;8.468;2023-09-08T11:42:56;26.40;99.90
11083;DHT22;5595;50.186;8.468;2023-09-08T11:45:23;26.40;99.90
11083;DHT22;5595;50.186;8.468;2023-09-08T11:47:52;26.40;99.90
11083;DHT22;5595;50.186;8.468;2023-09-08T11:50:19;26.50;99.90
11083;DHT22;5595;50.186;8.468;2023-09-08T11:52:48;26.50;99.90
11083;DHT22;5595;50.186;8.468;2023-09-08T11:55:17;26.60;99.90
11083;DHT22;5595;50.186;8.468;2023-09-08T11:57:46;26.60;99.90
11083;DHT22;5595;50.186;8.468;2023-09-08T12:00:15;26.70;99.90
11083;DHT22;5595;50.186;8.468;2023-09-08T12:02:43;26.70;99.90
11083;DHT22;5595;50.186;8.468;2023-09-08T12:05:14;26.70;99.90
11083;DHT22;5595;50.186;8.468;2023-09-08T12:07:46;26.70;99.90
11083;DHT22;5595;50.186;8.468;2023-09-08T12:10:13;26.70;99.90
11083;DHT22;5595;50.186;8.468;2023-09-08T12:12:47;26.80;99.90
11083;DHT22;5595;50.186;8.468;2023-09-08T12:15:29;26.80;99.90
11083;DHT22;5595;50.186;8.468;2023-09-08T12:17:58;26.90;99.90
11083;DHT22;5595;50.186;8.468;2023-09-08T12:20:25;26.80;99.90
11083;DHT22;5595;50.186;8.468;2023-09-08T12:22:52;26.80;99.90
11083;DHT22;5595;50.186;8.468;2023-09-08T12:25:19;26.80;99.90
11083;DHT22;5595;50.186;8.468;2023-09-08T12:27:50;26.80;99.90
11083;DHT22;5595;50.186;8.468;2023-09-08T12:30:18;26.80;99.90
11083;DHT22;5595;50.186;8.468;2023-09-08T12:32:47;26.80;99.90
11083;DHT22;5595;50.186;8.468;2023-09-08T12:35:20;26.80;99.80
11083;DHT22;5595;50.186;8.468;2023-09-08T12:37:56;26.80;99.60
11083;DHT22;5595;50.186;8.468;2023-09-08T12:40:24;26.90;99.40
11083;DHT22;5595;50.186;8.468;2023-09-08T12:42:52;26.90;99.00
11083;DHT22;5595;50.186;8.468;2023-09-08T12:45:20;27.00;99.00
11083;DHT22;5595;50.186;8.468;2023-09-08T12:47:48;27.10;98.70
11083;DHT22;5595;50.186;8.468;2023-09-08T12:50:14;27.10;98.50
11083;DHT22;5595;50.186;8.468;2023-09-08T12:52:44;27.10;98.50
11083;DHT22;5595;50.186;8.468;2023-09-08T12:55:11;27.00;98.40
11083;DHT22;5595;50.186;8.468;2023-09-08T12:57:41;27.00;98.40
11083;DHT22;5595;50.186;8.468;2023-09-08T13:00:10;27.00;98.30
11083;DHT22;5595;50.186;8.468;2023-09-08T13:02:37;27.00;98.50
11083;DHT22;5595;50.186;8.468;2023-09-08T13:05:05;27.00;98.60
11083;DHT22;5595;50.186;8.468;2023-09-08T13:07:32;27.10;98.60
11083;DHT22;5595;50.186;8.468;2023-09-08T13:09:59;27.00;98.50
11083;DHT22;5595;50.186;8.468;2023-09-08T13:12:25;27.10;98.30
11083;DHT22;5595;50.186;8.468;2023-09-08T13:14:54;27.10;98.10
11083;DHT22;5595;50.186;8.468;2023-09-08T13:17:22;27.10;98.00
11083;DHT22;5595;50.186;8.468;2023-09-08T13:19:49;27.00;98.00
11083;DHT22;5595;50.186;8.468;2023-09-08T13:22:16;27.10;97.90
11083;DHT22;5595;50.186;8.468;2023-09-08T13:24:43;27.10;97.90
11083;DHT22;5595;50.186;8.468;2023-09-08T13:27:09;27.10;98.00
11083;DHT22;5595;50.186;8.468;2023-09-08T13:29:37;27.10;97.90
11083;DHT22;5595;50.186;8.468;2023-09-08T13:32:04;27.10;97.80
11083;DHT22;5595;50.186;8.468;2023-09-08T13:34:33;27.20;97.70
11083;DHT22;5595;50.186;8.468;2023-09-08T13:37:01;27.20;97.30
11083;DHT22;5595;50.186;8.468;2023-09-08T13:39:30;27.10;97.10
11083;DHT22;5595;50.186;8.468;2023-09-08T13:42:02;27.10;97.10
11083;DHT22;5595;50.186;8.468;2023-09-08T13:44:29;27.00;97.10
11083;DHT22;5595;50.186;8.468;2023-09-08T13:46:56;26.90;96.90
11083;DHT22;5595;50.186;8.468;2023-09-08T13:49:23;27.00;96.50
11083;DHT22;5595;50.186;8.468;2023-09-08T13:51:51;27.00;96.60
11083;DHT22;5595;50.186;8.468;2023-09-08T13:54:19;27.10;96.60
11083;DHT22;5595;50.186;8.468;2023-09-08T13:56:57;27.10;96.30
11083;DHT22;5595;50.186;8.468;2023-09-08T13:59:24;27.30;96.50
11083;DHT22;5595;50.186;8.468;2023-09-08T14:01:51;27.20;96.40
11083;DHT22;5595;50.186;8.468;2023-09-08T14:04:19;27.20;96.50
11083;DHT22;5595;50.186;8.468;2023-09-08T14:06:46;27.20;96.60
11083;DHT22;5595;50.186;8.468;2023-09-08T14:09:15;27.20;96.60
11083;DHT22;5595;50.186;8.468;2023-09-08T14:11:42;27.20;96.10
11083;DHT22;5595;50.186;8.468;2023-09-08T14:14:09;27.20;96.10
11083;DHT22;5595;50.186;8.468;2023-09-08T14:16:36;27.20;96.10
11083;DHT22;5595;50.186;8.468;2023-09-08T14:19:03;27.20;96.10
11083;DHT22;5595;50.186;8.468;2023-09-08T14:21:30;27.20;96.10
11083;DHT22;5595;50.186;8.468;2023-09-08T14:23:58;27.20;95.90
11083;DHT22;5595;50.186;8.468;2023-09-08T14:26:26;27.10;95.90
11083;DHT22;5595;50.186;8.468;2023-09-08T14:28:52;27.10;95.70
11083;DHT22;5595;50.186;8.468;2023-09-08T14:31:19;27.10;95.80
11083;DHT22;5595;50.186;8.468;2023-09-08T14:33:46;27.10;95.60
11083;DHT22;5595;50.186;8.468;2023-09-08T14:36:16;27.00;95.50
11083;DHT22;5595;50.186;8.468;2023-09-08T14:38:43;27.10;95.60
11083;DHT22;5595;50.186;8.468;2023-09-08T14:41:10;27.10;95.70
11083;DHT22;5595;50.186;8.468;2023-09-08T14:43:38;27.10;95.40
11083;DHT22;5595;50.186;8.468;2023-09-08T14:46:05;27.10;95.40
11083;DHT22;5595;50.186;8.468;2023-09-08T14:48:32;27.00;95.50
11083;DHT22;5595;50.186;8.468;2023-09-08T14:51:00;26.90;95.50
11083;DHT22;5595;50.186;8.468;2023-09-08T14:53:27;26.90;95.50
11083;DHT22;5595;50.186;8.468;2023-09-08T14:55:55;26.90;95.50
11083;DHT22;5595;50.186;8.468;2023-09-08T14:58:23;26.90;95.40
11083;DHT22;5595;50.186;8.468;2023-09-08T15:00:52;26.80;95.30
11083;DHT22;5595;50.186;8.468;2023-09-08T15:03:30;26.80;95.10
11083;DHT22;5595;50.186;8.468;2023-09-08T15:06:00;26.70;95.20
11083;DHT22;5595;50.186;8.468;2023-09-08T15:08:28;26.80;95.30
11083;DHT22;5595;50.186;8.468;2023-09-08T15:10:55;26.70;95.30
11083;DHT22;5595;50.186;8.468;2023-09-08T15:13:21;26.70;95.40
11083;DHT22;5595;50.186;8.468;2023-09-08T15:15:48;26.70;95.40
11083;DHT22;5595;50.186;8.468;2023-09-08T15:18:16;26.60;95.30
11083;DHT22;5595;50.186;8.468;2023-09-08T15:20:50;26.60;95.40
11083;DHT22;5595;50.186;8.468;2023-09-08T15:23:17;26.70;95.40
11083;DHT22;5595;50.186;8.468;2023-09-08T15:25:50;26.70;95.20
11083;DHT22;5595;50.186;8.468;2023-09-08T15:28:17;26.60;95.40
11083;DHT22;5595;50.186;8.468;2023-09-08T15:30:47;26.60;95.50
11083;DHT22;5595;50.186;8.468;2023-09-08T15:33:15;26.50;95.60
11083;DHT22;5595;50.186;8.468;2023-09-08T15:35:42;26.40;95.80
11083;DHT22;5595;50.186;8.468;2023-09-08T15:38:09;26.40;95.70
11083;DHT22;5595;50.186;8.468;2023-09-08T15:40:37;26.30;96.20
11083;DHT22;5595;50.186;8.468;2023-09-08T15:43:04;26.20;95.90
11083;DHT22;5595;50.186;8.468;2023-09-08T15:45:31;26.10;95.80
11083;DHT22;5595;50.186;8.468;2023-09-08T15:47:58;26.00;96.20
11083;DHT22;5595;50.186;8.468;2023-09-08T15:50:26;26.00;96.30
11083;DHT22;5595;50.186;8.468;2023-09-08T15:52:53;25.90;96.30
11083;DHT22;5595;50.186;8.468;2023-09-08T15:55:19;25.90;96.30
11083;DHT22;5595;50.186;8.468;2023-09-08T15:57:46;25.90;96.20
11083;DHT22;5595;50.186;8.468;2023-09-08T16:00:14;25.80;96.10
11083;DHT22;5595;50.186;8.468;2023-09-08T16:02:41;25.80;96.20
11083;DHT22;5595;50.186;8.468;2023-09-08T16:05:08;25.80;96.20
11083;DHT22;5595;50.186;8.468;2023-09-08T16:07:36;25.70;96.50
11083;DHT22;5595;50.186;8.468;2023-09-08T16:10:05;25.70;96.60
11083;DHT22;5595;50.186;8.468;2023-09-08T16:12:32;25.60;96.70
11083;DHT22;5595;50.186;8.468;2023-09-08T16:14:59;25.60;96.90
11083;DHT22;5595;50.186;8.468;2023-09-08T16:17:26;25.50;96.80
11083;DHT22;5595;50.186;8.468;2023-09-08T16:19:54;25.40;96.80
11083;DHT22;5595;50.186;8.468;2023-09-08T16:22:20;25.40;96.90
11083;DHT22;5595;50.186;8.468;2023-09-08T16:24:49;25.30;96.90
11083;DHT22;5595;50.186;8.468;2023-09-08T16:27:16;25.30;96.90
11083;DHT22;5595;50.186;8.468;2023-09-08T16:29:43;25.20;96.90
11083;DHT22;5595;50.186;8.468;2023-09-08T16:32:11;25.20;97.10
11083;DHT22;5595;50.186;8.468;2023-09-08T16:34:38;25.10;97.20
11083;DHT22;5595;50.186;8.468;2023-09-08T16:47:13;24.70;98.00
11083;DHT22;5595;50.186;8.468;2023-09-08T16:49:43;24.50;98.70
11083;DHT22;5595;50.186;8.468;2023-09-08T16:52:10;24.40;99.50
11083;DHT22;5595;50.186;8.468;2023-09-08T16:54:37;24.30;99.70
11083;DHT22;5595;50.186;8.468;2023-09-08T16:57:03;24.30;99.90
11083;DHT22;5595;50.186;8.468;2023-09-08T16:59:31;24.20;99.90
11083;DHT22;5595;50.186;8.468;2023-09-08T17:01:59;24.00;99.90
11083;DHT22;5595;50.186;8.468;2023-09-08T17:04:28;24.00;99.90
11083;DHT22;5595;50.186;8.468;2023-09-08T17:06:55;23.80;99.90
11083;DHT22;5595;50.186;8.468;2023-09-08T17:22:34;23.10;99.90
11083;DHT22;5595;50.186;8.468;2023-09-08T17:25:01;22.90;99.90
11083;DHT22;5595;50.186;8.468;2023-09-08T17:27:28;22.80;99.90
11083;DHT22;5595;50.186;8.468;2023-09-08T17:29:55;22.70;99.90
11083;DHT22;5595;50.186;8.468;2023-09-08T17:32:21;22.60;99.90
11083;DHT22;5595;50.186;8.468;2023-09-08T17:34:48;22.50;99.90
11083;DHT22;5595;50.186;8.468;2023-09-08T17:37:15;22.30;99.90
11083;DHT22;5595;50.186;8.468;2023-09-08T17:39:43;22.30;99.90
11083;DHT22;5595;50.186;8.468;2023-09-08T17:42:10;22.10;99.90
11083;DHT22;5595;50.186;8.468;2023-09-08T17:44:37;22.00;99.90
11083;DHT22;5595;50.186;8.468;2023-09-08T17:47:04;22.00;99.90
11083;DHT22;5595;50.186;8.468;2023-09-08T18:15:46;20.80;99.90
11083;DHT22;5595;50.186;8.468;2023-09-08T18:18:13;20.60;99.90
11083;DHT22;5595;50.186;8.468;2023-09-08T18:20:39;20.60;99.90
11083;DHT22;5595;50.186;8.468;2023-09-08T18:23:07;20.50;99.90
11083;DHT22;5595;50.186;8.468;2023-09-08T18:25:34;20.50;99.90
11083;DHT22;5595;50.186;8.468;2023-09-08T18:28:00;20.50;99.90
11083;DHT22;5595;50.186;8.468;2023-09-08T18:30:27;20.30;99.90
11083;DHT22;5595;50.186;8.468;2023-09-08T18:32:56;20.20;99.90
11083;DHT22;5595;50.186;8.468;2023-09-08T18:35:22;20.20;99.90
11083;DHT22;5595;50.186;8.468;2023-09-08T18:37:49;20.10;99.90
11083;DHT22;5595;50.186;8.468;2023-09-08T18:40:16;20.10;99.90
11083;DHT22;5595;50.186;8.468;2023-09-08T18:56:10;19.70;99.90
11083;DHT22;5595;50.186;8.468;2023-09-08T18:58:39;19.60;99.90
11083;DHT22;5595;50.186;8.468;2023-09-08T19:01:06;19.60;99.90
11083;DHT22;5595;50.186;8.468;2023-09-08T20:09:13;18.80;99.90
11083;DHT22;5595;50.186;8.468;2023-09-08T20:11:41;18.70;99.90
11083;DHT22;5595;50.186;8.468;2023-09-08T20:14:08;18.70;99.90
11083;DHT22;5595;50.186;8.468;2023-09-08T20:16:35;18.70;99.90
11083;DHT22;5595;50.186;8.468;2023-09-08T20:19:02;18.70;99.90
11083;DHT22;5595;50.186;8.468;2023-09-08T20:46:54;18.50;99.90
11083;DHT22;5595;50.186;8.468;2023-09-08T20:49:22;18.50;99.90
11083;DHT22;5595;50.186;8.468;2023-09-08T20:51:49;18.50;99.90
11083;DHT22;5595;50.186;8.468;2023-09-08T20:54:16;18.40;99.90
11083;DHT22;5595;50.186;8.468;2023-09-08T20:56:43;18.50;99.90
11083;DHT22;5595;50.186;8.468;2023-09-08T20:59:09;18.50;99.90
11083;DHT22;5595;50.186;8.468;2023-09-08T21:01:36;18.40;99.90
11083;DHT22;5595;50.186;8.468;2023-09-08T21:04:05;18.40;99.90
11083;DHT22;5595;50.186;8.468;2023-09-08T21:06:32;18.40;99.90
11083;DHT22;5595;50.186;8.468;2023-09-08T21:36:36;18.00;99.90
11083;DHT22;5595;50.186;8.468;2023-09-08T21:47:04;18.00;99.90
11083;DHT22;5595;50.186;8.468;2023-09-08T21:53:07;17.90;99.90
11083;DHT22;5595;50.186;8.468;2023-09-08T22:00:06;17.80;99.90
11083;DHT22;5595;50.186;8.468;2023-09-08T22:03:26;17.70;99.90
11083;DHT22;5595;50.186;8.468;2023-09-08T22:06:57;17.80;99.90
11083;DHT22;5595;50.186;8.468;2023-09-08T23:07:50;17.30;99.90
11083;DHT22;5595;50.186;8.468;2023-09-08T23:13:30;17.40;99.90
11083;DHT22;5595;50.186;8.468;2023-09-08T23:20:00;17.30;99.90
11083;DHT22;5595;50.186;8.468;2023-09-08T23:26:45;17.30;99.90
11083;DHT22;5595;50.186;8.468;2023-09-08T23:29:21;17.30;99.90
11083;DHT22;5595;50.186;8.468;2023-09-08T23:32:41;17.30;99.90
11083;DHT22;5595;50.186;8.468;2023-09-08T23:35:15;17.20;99.90
11083;DHT22;5595;50.186;8.468;2023-09-08T23:37:51;17.20;99.90
11083;DHT22;5595;50.186;8.468;2023-09-08T23:40:43;17.20;99.90
11083;DHT22;5595;50.186;8.468;2023-09-08T23:43:39;17.20;99.90
11083;DHT22;5595;50.186;8.468;2023-09-08T23:46:13;17.10;99.90
11083;DHT22;5595;50.186;8.468;2023-09-08T23:48:57;17.10;99.90
11083;DHT22;5595;50.186;8.468;2023-09-08T23:51:48;17.10;99.90
11083;DHT22;5595;50.186;8.468;2023-09-08T23:54:37;17.10;99.90
11083;DHT22;5595;50.186;8.468;2023-09-08T23:57:10;17.10;99.90
11083;DHT22;5595;50.186;8.468;2023-09-08T23:59:45;17.10;99.90
